sensor_id;sensor_type;location;lat;lon;timestamp;P1;durP1;ratioP1;P2;durP2;ratioP2
6095;SDS011;25081;42.698;23.298;2023-06-14T00:00:26;8.20;;;6.40;;
6095;SDS011;25081;42.698;23.298;2023-06-14T00:02:38;7.90;;;6.40;;
6095;SDS011;25081;42.698;23.298;2023-06-14T00:04:48;7.13;;;6.07;;
6095;SDS011;25081;42.698;23.298;2023-06-14T00:06:59;8.30;;;6.40;;
6095;SDS011;25081;42.698;23.298;2023-06-14T00:09:09;9.57;;;5.93;;
6095;SDS011;25081;42.698;23.298;2023-06-14T00:11:21;7.50;;;5.40;;
6095;SDS011;25081;42.698;23.298;2023-06-14T00:13:31;7.93;;;6.00;;
6095;SDS011;25081;42.698;23.298;2023-06-14T00:15:42;7.67;;;5.90;;
6095;SDS011;25081;42.698;23.298;2023-06-14T00:17:52;7.07;;;6.37;;
6095;SDS011;25081;42.698;23.298;2023-06-14T00:20:04;6.87;;;5.30;;
6095;SDS011;25081;42.698;23.298;2023-06-14T00:22:16;8.33;;;5.70;;
6095;SDS011;25081;42.698;23.298;2023-06-14T00:24:27;7.47;;;5.60;;
6095;SDS011;25081;42.698;23.298;2023-06-14T00:26:37;7.40;;;5.90;;
6095;SDS011;25081;42.698;23.298;2023-06-14T00:28:50;11.13;;;6.10;;
6095;SDS011;25081;42.698;23.298;2023-06-14T00:31:01;9.30;;;6.63;;
6095;SDS011;25081;42.698;23.298;2023-06-14T00:33:12;7.10;;;5.83;;
6095;SDS011;25081;42.698;23.298;2023-06-14T00:35:23;8.30;;;6.43;;
6095;SDS011;25081;42.698;23.298;2023-06-14T00:37:34;7.47;;;6.47;;
6095;SDS011;25081;42.698;23.298;2023-06-14T00:39:45;14.10;;;7.17;;
6095;SDS011;25081;42.698;23.298;2023-06-14T00:41:55;8.90;;;6.63;;
6095;SDS011;25081;42.698;23.298;2023-06-14T00:44:06;8.53;;;5.93;;
6095;SDS011;25081;42.698;23.298;2023-06-14T00:46:17;11.30;;;7.70;;
6095;SDS011;25081;42.698;23.298;2023-06-14T00:48:28;7.00;;;6.03;;
6095;SDS011;25081;42.698;23.298;2023-06-14T00:50:39;7.17;;;6.43;;
6095;SDS011;25081;42.698;23.298;2023-06-14T00:52:50;8.43;;;6.23;;
6095;SDS011;25081;42.698;23.298;2023-06-14T00:55:00;6.53;;;5.50;;
6095;SDS011;25081;42.698;23.298;2023-06-14T00:57:11;7.80;;;5.83;;
6095;SDS011;25081;42.698;23.298;2023-06-14T00:59:22;7.10;;;6.07;;
6095;SDS011;25081;42.698;23.298;2023-06-14T01:01:32;8.40;;;5.57;;
6095;SDS011;25081;42.698;23.298;2023-06-14T01:03:44;8.43;;;6.57;;
6095;SDS011;25081;42.698;23.298;2023-06-14T01:05:56;6.30;;;5.60;;
6095;SDS011;25081;42.698;23.298;2023-06-14T01:08:11;5.83;;;5.23;;
6095;SDS011;25081;42.698;23.298;2023-06-14T01:10:25;8.57;;;5.70;;
6095;SDS011;25081;42.698;23.298;2023-06-14T01:12:38;8.97;;;5.90;;
6095;SDS011;25081;42.698;23.298;2023-06-14T01:14:49;8.03;;;5.57;;
6095;SDS011;25081;42.698;23.298;2023-06-14T01:17:00;7.40;;;5.53;;
6095;SDS011;25081;42.698;23.298;2023-06-14T01:19:11;9.63;;;5.53;;
6095;SDS011;25081;42.698;23.298;2023-06-14T01:21:22;7.47;;;5.57;;
6095;SDS011;25081;42.698;23.298;2023-06-14T01:23:33;7.80;;;6.63;;
6095;SDS011;25081;42.698;23.298;2023-06-14T01:25:43;7.90;;;6.30;;
6095;SDS011;25081;42.698;23.298;2023-06-14T01:27:55;6.97;;;6.27;;
6095;SDS011;25081;42.698;23.298;2023-06-14T01:30:06;7.13;;;6.40;;
6095;SDS011;25081;42.698;23.298;2023-06-14T01:32:18;6.80;;;5.50;;
6095;SDS011;25081;42.698;23.298;2023-06-14T01:34:29;8.67;;;6.23;;
6095;SDS011;25081;42.698;23.298;2023-06-14T01:36:40;10.37;;;6.20;;
6095;SDS011;25081;42.698;23.298;2023-06-14T01:38:50;7.73;;;6.23;;
6095;SDS011;25081;42.698;23.298;2023-06-14T01:41:01;6.90;;;6.00;;
6095;SDS011;25081;42.698;23.298;2023-06-14T01:43:12;14.57;;;6.07;;
6095;SDS011;25081;42.698;23.298;2023-06-14T01:45:23;6.40;;;5.60;;
6095;SDS011;25081;42.698;23.298;2023-06-14T01:47:34;7.70;;;6.90;;
6095;SDS011;25081;42.698;23.298;2023-06-14T01:49:45;7.47;;;5.50;;
6095;SDS011;25081;42.698;23.298;2023-06-14T01:51:56;7.50;;;6.00;;
6095;SDS011;25081;42.698;23.298;2023-06-14T01:54:07;11.07;;;6.00;;
6095;SDS011;25081;42.698;23.298;2023-06-14T01:56:18;7.47;;;5.70;;
6095;SDS011;25081;42.698;23.298;2023-06-14T01:58:28;7.37;;;5.60;;
6095;SDS011;25081;42.698;23.298;2023-06-14T02:00:39;7.77;;;6.33;;
6095;SDS011;25081;42.698;23.298;2023-06-14T02:02:50;8.67;;;6.33;;
6095;SDS011;25081;42.698;23.298;2023-06-14T02:05:01;7.20;;;6.27;;
6095;SDS011;25081;42.698;23.298;2023-06-14T02:07:12;7.07;;;6.37;;
6095;SDS011;25081;42.698;23.298;2023-06-14T02:09:23;6.77;;;6.07;;
6095;SDS011;25081;42.698;23.298;2023-06-14T02:11:34;10.60;;;6.70;;
6095;SDS011;25081;42.698;23.298;2023-06-14T02:13:44;10.27;;;7.27;;
6095;SDS011;25081;42.698;23.298;2023-06-14T02:15:55;8.33;;;6.97;;
6095;SDS011;25081;42.698;23.298;2023-06-14T02:18:06;10.10;;;6.00;;
6095;SDS011;25081;42.698;23.298;2023-06-14T02:20:16;8.57;;;6.67;;
6095;SDS011;25081;42.698;23.298;2023-06-14T02:22:27;7.50;;;6.70;;
6095;SDS011;25081;42.698;23.298;2023-06-14T02:24:38;10.17;;;6.47;;
6095;SDS011;25081;42.698;23.298;2023-06-14T02:26:49;7.93;;;6.67;;
6095;SDS011;25081;42.698;23.298;2023-06-14T02:29:00;8.43;;;6.60;;
6095;SDS011;25081;42.698;23.298;2023-06-14T02:31:11;9.50;;;7.03;;
6095;SDS011;25081;42.698;23.298;2023-06-14T02:33:21;10.17;;;6.87;;
6095;SDS011;25081;42.698;23.298;2023-06-14T02:35:32;8.07;;;6.83;;
6095;SDS011;25081;42.698;23.298;2023-06-14T02:37:43;9.90;;;7.23;;
6095;SDS011;25081;42.698;23.298;2023-06-14T02:39:54;11.00;;;7.00;;
6095;SDS011;25081;42.698;23.298;2023-06-14T02:42:06;9.47;;;7.13;;
6095;SDS011;25081;42.698;23.298;2023-06-14T02:44:18;8.13;;;6.80;;
6095;SDS011;25081;42.698;23.298;2023-06-14T02:46:29;7.50;;;6.50;;
6095;SDS011;25081;42.698;23.298;2023-06-14T02:48:40;9.60;;;7.00;;
6095;SDS011;25081;42.698;23.298;2023-06-14T02:50:50;19.27;;;6.80;;
6095;SDS011;25081;42.698;23.298;2023-06-14T02:53:01;11.00;;;6.50;;
6095;SDS011;25081;42.698;23.298;2023-06-14T02:55:12;9.33;;;5.63;;
6095;SDS011;25081;42.698;23.298;2023-06-14T02:57:23;8.10;;;6.73;;
6095;SDS011;25081;42.698;23.298;2023-06-14T02:59:34;10.67;;;6.60;;
6095;SDS011;25081;42.698;23.298;2023-06-14T03:01:45;8.23;;;7.07;;
6095;SDS011;25081;42.698;23.298;2023-06-14T03:03:56;8.97;;;7.00;;
6095;SDS011;25081;42.698;23.298;2023-06-14T03:06:06;13.73;;;6.90;;
6095;SDS011;25081;42.698;23.298;2023-06-14T03:08:17;7.63;;;6.43;;
6095;SDS011;25081;42.698;23.298;2023-06-14T03:10:28;17.60;;;12.83;;
6095;SDS011;25081;42.698;23.298;2023-06-14T03:12:39;12.63;;;10.47;;
6095;SDS011;25081;42.698;23.298;2023-06-14T03:14:49;14.90;;;8.17;;
6095;SDS011;25081;42.698;23.298;2023-06-14T03:17:00;11.73;;;7.13;;
6095;SDS011;25081;42.698;23.298;2023-06-14T03:19:11;8.40;;;6.40;;
6095;SDS011;25081;42.698;23.298;2023-06-14T03:21:22;12.77;;;6.20;;
6095;SDS011;25081;42.698;23.298;2023-06-14T03:23:32;8.40;;;7.20;;
6095;SDS011;25081;42.698;23.298;2023-06-14T03:25:43;9.73;;;8.73;;
6095;SDS011;25081;42.698;23.298;2023-06-14T03:27:53;8.03;;;5.97;;
6095;SDS011;25081;42.698;23.298;2023-06-14T03:30:07;10.53;;;7.77;;
6095;SDS011;25081;42.698;23.298;2023-06-14T03:32:19;6.70;;;6.00;;
6095;SDS011;25081;42.698;23.298;2023-06-14T03:34:29;7.70;;;6.90;;
6095;SDS011;25081;42.698;23.298;2023-06-14T03:36:40;7.67;;;5.97;;
6095;SDS011;25081;42.698;23.298;2023-06-14T03:38:51;12.73;;;6.60;;
6095;SDS011;25081;42.698;23.298;2023-06-14T03:41:01;8.10;;;6.60;;
6095;SDS011;25081;42.698;23.298;2023-06-14T03:43:12;10.93;;;7.50;;
6095;SDS011;25081;42.698;23.298;2023-06-14T03:45:23;9.97;;;6.67;;
6095;SDS011;25081;42.698;23.298;2023-06-14T03:47:33;7.40;;;6.30;;
6095;SDS011;25081;42.698;23.298;2023-06-14T03:49:44;8.87;;;6.07;;
6095;SDS011;25081;42.698;23.298;2023-06-14T03:51:55;7.27;;;5.93;;
6095;SDS011;25081;42.698;23.298;2023-06-14T03:54:05;7.20;;;5.47;;
6095;SDS011;25081;42.698;23.298;2023-06-14T03:56:16;10.87;;;7.30;;
6095;SDS011;25081;42.698;23.298;2023-06-14T03:58:26;7.50;;;6.13;;
6095;SDS011;25081;42.698;23.298;2023-06-14T04:00:38;6.90;;;5.50;;
6095;SDS011;25081;42.698;23.298;2023-06-14T04:02:48;10.83;;;7.87;;
6095;SDS011;25081;42.698;23.298;2023-06-14T04:04:59;7.70;;;6.40;;
6095;SDS011;25081;42.698;23.298;2023-06-14T04:07:09;7.40;;;5.90;;
6095;SDS011;25081;42.698;23.298;2023-06-14T04:09:20;9.47;;;6.37;;
6095;SDS011;25081;42.698;23.298;2023-06-14T04:11:31;10.80;;;6.00;;
6095;SDS011;25081;42.698;23.298;2023-06-14T04:13:41;7.07;;;6.10;;
6095;SDS011;25081;42.698;23.298;2023-06-14T04:15:52;9.63;;;6.93;;
6095;SDS011;25081;42.698;23.298;2023-06-14T04:18:03;7.60;;;5.93;;
6095;SDS011;25081;42.698;23.298;2023-06-14T04:20:14;8.50;;;6.30;;
6095;SDS011;25081;42.698;23.298;2023-06-14T04:22:24;11.40;;;5.60;;
6095;SDS011;25081;42.698;23.298;2023-06-14T04:24:35;7.83;;;6.30;;
6095;SDS011;25081;42.698;23.298;2023-06-14T04:26:46;8.97;;;5.30;;
6095;SDS011;25081;42.698;23.298;2023-06-14T04:28:56;8.57;;;5.43;;
6095;SDS011;25081;42.698;23.298;2023-06-14T04:31:07;12.00;;;6.10;;
6095;SDS011;25081;42.698;23.298;2023-06-14T04:33:18;7.90;;;5.17;;
6095;SDS011;25081;42.698;23.298;2023-06-14T04:35:29;14.47;;;6.70;;
6095;SDS011;25081;42.698;23.298;2023-06-14T04:37:39;8.63;;;6.37;;
6095;SDS011;25081;42.698;23.298;2023-06-14T04:39:50;9.63;;;6.90;;
6095;SDS011;25081;42.698;23.298;2023-06-14T04:42:02;8.07;;;6.37;;
6095;SDS011;25081;42.698;23.298;2023-06-14T04:44:13;9.43;;;6.70;;
6095;SDS011;25081;42.698;23.298;2023-06-14T04:46:24;8.37;;;6.30;;
6095;SDS011;25081;42.698;23.298;2023-06-14T04:48:34;7.70;;;6.07;;
6095;SDS011;25081;42.698;23.298;2023-06-14T04:50:45;7.80;;;5.30;;
6095;SDS011;25081;42.698;23.298;2023-06-14T04:52:56;7.83;;;5.37;;
6095;SDS011;25081;42.698;23.298;2023-06-14T04:55:08;6.33;;;5.73;;
6095;SDS011;25081;42.698;23.298;2023-06-14T04:57:19;8.97;;;5.97;;
6095;SDS011;25081;42.698;23.298;2023-06-14T04:59:30;7.40;;;5.60;;
6095;SDS011;25081;42.698;23.298;2023-06-14T05:01:41;6.47;;;5.60;;
6095;SDS011;25081;42.698;23.298;2023-06-14T05:03:52;6.87;;;5.50;;
6095;SDS011;25081;42.698;23.298;2023-06-14T05:06:03;6.80;;;5.77;;
6095;SDS011;25081;42.698;23.298;2023-06-14T05:08:14;6.60;;;5.90;;
6095;SDS011;25081;42.698;23.298;2023-06-14T05:10:25;9.17;;;7.00;;
6095;SDS011;25081;42.698;23.298;2023-06-14T05:12:36;9.33;;;6.17;;
6095;SDS011;25081;42.698;23.298;2023-06-14T05:14:46;8.80;;;6.90;;
6095;SDS011;25081;42.698;23.298;2023-06-14T05:16:57;8.87;;;7.07;;
6095;SDS011;25081;42.698;23.298;2023-06-14T05:19:08;11.67;;;7.40;;
6095;SDS011;25081;42.698;23.298;2023-06-14T05:21:19;8.17;;;6.97;;
6095;SDS011;25081;42.698;23.298;2023-06-14T05:23:30;7.37;;;6.67;;
6095;SDS011;25081;42.698;23.298;2023-06-14T05:25:42;9.67;;;6.60;;
6095;SDS011;25081;42.698;23.298;2023-06-14T05:27:53;10.10;;;7.33;;
6095;SDS011;25081;42.698;23.298;2023-06-14T05:30:05;8.00;;;7.13;;
6095;SDS011;25081;42.698;23.298;2023-06-14T05:32:16;9.13;;;7.03;;
6095;SDS011;25081;42.698;23.298;2023-06-14T05:34:27;11.63;;;7.93;;
6095;SDS011;25081;42.698;23.298;2023-06-14T05:36:38;13.00;;;8.20;;
6095;SDS011;25081;42.698;23.298;2023-06-14T05:38:48;14.43;;;8.53;;
6095;SDS011;25081;42.698;23.298;2023-06-14T05:40:59;8.83;;;7.63;;
6095;SDS011;25081;42.698;23.298;2023-06-14T05:43:10;9.57;;;7.37;;
6095;SDS011;25081;42.698;23.298;2023-06-14T05:45:21;14.67;;;10.53;;
6095;SDS011;25081;42.698;23.298;2023-06-14T05:47:32;13.13;;;10.10;;
6095;SDS011;25081;42.698;23.298;2023-06-14T05:49:43;11.53;;;8.77;;
6095;SDS011;25081;42.698;23.298;2023-06-14T05:51:53;10.37;;;8.60;;
6095;SDS011;25081;42.698;23.298;2023-06-14T05:54:04;12.70;;;8.63;;
6095;SDS011;25081;42.698;23.298;2023-06-14T05:56:15;9.00;;;7.30;;
6095;SDS011;25081;42.698;23.298;2023-06-14T05:58:26;9.80;;;8.00;;
6095;SDS011;25081;42.698;23.298;2023-06-14T06:00:37;14.93;;;9.60;;
6095;SDS011;25081;42.698;23.298;2023-06-14T06:02:47;10.07;;;9.03;;
6095;SDS011;25081;42.698;23.298;2023-06-14T06:04:58;11.20;;;9.27;;
6095;SDS011;25081;42.698;23.298;2023-06-14T06:07:08;14.40;;;10.10;;
6095;SDS011;25081;42.698;23.298;2023-06-14T06:09:19;13.07;;;9.73;;
6095;SDS011;25081;42.698;23.298;2023-06-14T06:11:30;14.50;;;10.50;;
6095;SDS011;25081;42.698;23.298;2023-06-14T06:13:41;11.80;;;9.47;;
6095;SDS011;25081;42.698;23.298;2023-06-14T06:15:51;12.77;;;10.10;;
6095;SDS011;25081;42.698;23.298;2023-06-14T06:18:02;12.97;;;10.10;;
6095;SDS011;25081;42.698;23.298;2023-06-14T06:20:13;14.63;;;9.97;;
6095;SDS011;25081;42.698;23.298;2023-06-14T06:22:25;13.13;;;9.70;;
6095;SDS011;25081;42.698;23.298;2023-06-14T06:24:36;12.50;;;9.97;;
6095;SDS011;25081;42.698;23.298;2023-06-14T06:26:47;13.83;;;9.70;;
6095;SDS011;25081;42.698;23.298;2023-06-14T06:28:57;11.87;;;9.10;;
6095;SDS011;25081;42.698;23.298;2023-06-14T06:31:08;14.67;;;11.10;;
6095;SDS011;25081;42.698;23.298;2023-06-14T06:33:19;14.63;;;10.90;;
6095;SDS011;25081;42.698;23.298;2023-06-14T06:35:30;11.90;;;9.53;;
6095;SDS011;25081;42.698;23.298;2023-06-14T06:37:41;17.33;;;10.37;;
6095;SDS011;25081;42.698;23.298;2023-06-14T06:39:51;14.00;;;10.30;;
6095;SDS011;25081;42.698;23.298;2023-06-14T06:42:02;14.50;;;10.20;;
6095;SDS011;25081;42.698;23.298;2023-06-14T06:44:13;12.23;;;10.17;;
6095;SDS011;25081;42.698;23.298;2023-06-14T06:46:24;15.80;;;10.23;;
6095;SDS011;25081;42.698;23.298;2023-06-14T06:48:34;12.60;;;10.77;;
6095;SDS011;25081;42.698;23.298;2023-06-14T06:50:45;14.13;;;9.40;;
6095;SDS011;25081;42.698;23.298;2023-06-14T06:52:55;14.83;;;10.53;;
6095;SDS011;25081;42.698;23.298;2023-06-14T06:55:07;14.60;;;9.47;;
6095;SDS011;25081;42.698;23.298;2023-06-14T06:57:18;12.93;;;10.00;;
6095;SDS011;25081;42.698;23.298;2023-06-14T06:59:30;16.10;;;10.83;;
6095;SDS011;25081;42.698;23.298;2023-06-14T07:01:41;13.43;;;10.40;;
6095;SDS011;25081;42.698;23.298;2023-06-14T07:03:52;14.23;;;11.30;;
6095;SDS011;25081;42.698;23.298;2023-06-14T07:06:02;15.93;;;10.40;;
6095;SDS011;25081;42.698;23.298;2023-06-14T07:08:14;21.20;;;11.13;;
6095;SDS011;25081;42.698;23.298;2023-06-14T07:10:25;15.47;;;11.30;;
6095;SDS011;25081;42.698;23.298;2023-06-14T07:12:35;15.23;;;12.33;;
6095;SDS011;25081;42.698;23.298;2023-06-14T07:14:46;15.70;;;11.50;;
6095;SDS011;25081;42.698;23.298;2023-06-14T07:16:57;17.93;;;12.33;;
6095;SDS011;25081;42.698;23.298;2023-06-14T07:19:07;13.90;;;11.70;;
6095;SDS011;25081;42.698;23.298;2023-06-14T07:21:18;15.93;;;11.67;;
6095;SDS011;25081;42.698;23.298;2023-06-14T07:23:29;19.33;;;13.77;;
6095;SDS011;25081;42.698;23.298;2023-06-14T07:25:39;17.40;;;14.23;;
6095;SDS011;25081;42.698;23.298;2023-06-14T07:27:50;18.10;;;12.27;;
6095;SDS011;25081;42.698;23.298;2023-06-14T07:30:01;16.90;;;12.93;;
6095;SDS011;25081;42.698;23.298;2023-06-14T07:32:12;16.97;;;13.13;;
6095;SDS011;25081;42.698;23.298;2023-06-14T07:34:23;16.05;;;13.00;;
6095;SDS011;25081;42.698;23.298;2023-06-14T07:36:34;18.47;;;13.77;;
6095;SDS011;25081;42.698;23.298;2023-06-14T07:38:54;16.13;;;13.83;;
6095;SDS011;25081;42.698;23.298;2023-06-14T07:41:05;17.23;;;14.37;;
6095;SDS011;25081;42.698;23.298;2023-06-14T07:43:16;15.57;;;13.67;;
6095;SDS011;25081;42.698;23.298;2023-06-14T07:45:27;14.83;;;11.97;;
6095;SDS011;25081;42.698;23.298;2023-06-14T07:47:37;14.83;;;12.23;;
6095;SDS011;25081;42.698;23.298;2023-06-14T07:49:48;15.00;;;11.63;;
6095;SDS011;25081;42.698;23.298;2023-06-14T07:51:59;17.97;;;12.80;;
6095;SDS011;25081;42.698;23.298;2023-06-14T07:54:10;15.50;;;13.30;;
6095;SDS011;25081;42.698;23.298;2023-06-14T07:56:20;17.70;;;13.23;;
6095;SDS011;25081;42.698;23.298;2023-06-14T07:58:31;15.43;;;10.77;;
6095;SDS011;25081;42.698;23.298;2023-06-14T08:00:42;16.83;;;12.00;;
6095;SDS011;25081;42.698;23.298;2023-06-14T08:02:52;13.50;;;11.80;;
6095;SDS011;25081;42.698;23.298;2023-06-14T08:05:04;14.90;;;10.87;;
6095;SDS011;25081;42.698;23.298;2023-06-14T08:07:15;13.97;;;11.50;;
6095;SDS011;25081;42.698;23.298;2023-06-14T08:09:27;12.80;;;10.70;;
6095;SDS011;25081;42.698;23.298;2023-06-14T08:11:37;12.77;;;10.33;;
6095;SDS011;25081;42.698;23.298;2023-06-14T08:13:48;13.63;;;11.37;;
6095;SDS011;25081;42.698;23.298;2023-06-14T08:15:59;16.50;;;11.87;;
6095;SDS011;25081;42.698;23.298;2023-06-14T08:18:09;12.60;;;11.30;;
6095;SDS011;25081;42.698;23.298;2023-06-14T08:20:20;15.83;;;11.07;;
6095;SDS011;25081;42.698;23.298;2023-06-14T08:22:30;14.97;;;12.00;;
6095;SDS011;25081;42.698;23.298;2023-06-14T08:24:41;13.40;;;10.83;;
6095;SDS011;25081;42.698;23.298;2023-06-14T08:26:52;14.27;;;11.53;;
6095;SDS011;25081;42.698;23.298;2023-06-14T08:29:03;14.07;;;12.07;;
6095;SDS011;25081;42.698;23.298;2023-06-14T08:31:13;12.53;;;10.63;;
6095;SDS011;25081;42.698;23.298;2023-06-14T08:33:24;11.63;;;10.20;;
6095;SDS011;25081;42.698;23.298;2023-06-14T08:35:34;11.10;;;10.00;;
6095;SDS011;25081;42.698;23.298;2023-06-14T08:37:45;12.13;;;10.37;;
6095;SDS011;25081;42.698;23.298;2023-06-14T08:39:56;11.93;;;10.73;;
6095;SDS011;25081;42.698;23.298;2023-06-14T08:42:07;12.43;;;10.60;;
6095;SDS011;25081;42.698;23.298;2023-06-14T08:44:17;13.87;;;10.80;;
6095;SDS011;25081;42.698;23.298;2023-06-14T08:46:28;11.00;;;9.23;;
6095;SDS011;25081;42.698;23.298;2023-06-14T08:48:39;12.20;;;9.50;;
6095;SDS011;25081;42.698;23.298;2023-06-14T08:50:49;12.73;;;9.87;;
6095;SDS011;25081;42.698;23.298;2023-06-14T08:53:01;12.40;;;10.20;;
6095;SDS011;25081;42.698;23.298;2023-06-14T08:55:11;13.70;;;9.90;;
6095;SDS011;25081;42.698;23.298;2023-06-14T08:57:22;13.60;;;9.87;;
6095;SDS011;25081;42.698;23.298;2023-06-14T08:59:33;12.63;;;10.43;;
6095;SDS011;25081;42.698;23.298;2023-06-14T09:01:44;11.70;;;9.67;;
6095;SDS011;25081;42.698;23.298;2023-06-14T09:03:54;11.47;;;10.30;;
6095;SDS011;25081;42.698;23.298;2023-06-14T09:06:05;15.67;;;10.70;;
6095;SDS011;25081;42.698;23.298;2023-06-14T09:08:16;12.00;;;10.53;;
6095;SDS011;25081;42.698;23.298;2023-06-14T09:10:27;14.53;;;10.83;;
6095;SDS011;25081;42.698;23.298;2023-06-14T09:12:38;12.53;;;10.50;;
6095;SDS011;25081;42.698;23.298;2023-06-14T09:14:48;11.80;;;10.50;;
6095;SDS011;25081;42.698;23.298;2023-06-14T09:16:59;12.03;;;10.53;;
6095;SDS011;25081;42.698;23.298;2023-06-14T09:19:11;11.47;;;9.63;;
6095;SDS011;25081;42.698;23.298;2023-06-14T09:21:23;12.23;;;10.03;;
6095;SDS011;25081;42.698;23.298;2023-06-14T09:23:35;12.70;;;11.23;;
6095;SDS011;25081;42.698;23.298;2023-06-14T09:25:47;12.27;;;10.30;;
6095;SDS011;25081;42.698;23.298;2023-06-14T09:27:58;12.03;;;9.73;;
6095;SDS011;25081;42.698;23.298;2023-06-14T09:30:10;11.13;;;9.90;;
6095;SDS011;25081;42.698;23.298;2023-06-14T09:32:21;12.03;;;8.73;;
6095;SDS011;25081;42.698;23.298;2023-06-14T09:34:32;10.50;;;9.50;;
6095;SDS011;25081;42.698;23.298;2023-06-14T09:36:42;11.27;;;10.10;;
6095;SDS011;25081;42.698;23.298;2023-06-14T09:38:53;10.30;;;9.30;;
6095;SDS011;25081;42.698;23.298;2023-06-14T09:41:04;12.00;;;10.27;;
6095;SDS011;25081;42.698;23.298;2023-06-14T09:43:14;12.80;;;10.20;;
6095;SDS011;25081;42.698;23.298;2023-06-14T09:45:25;12.07;;;9.83;;
6095;SDS011;25081;42.698;23.298;2023-06-14T09:47:35;22.37;;;14.70;;
6095;SDS011;25081;42.698;23.298;2023-06-14T09:49:46;20.23;;;13.10;;
6095;SDS011;25081;42.698;23.298;2023-06-14T09:51:57;15.70;;;12.57;;
6095;SDS011;25081;42.698;23.298;2023-06-14T09:54:07;14.70;;;10.87;;
6095;SDS011;25081;42.698;23.298;2023-06-14T09:56:20;13.37;;;10.40;;
6095;SDS011;25081;42.698;23.298;2023-06-14T09:58:29;13.93;;;10.80;;
6095;SDS011;25081;42.698;23.298;2023-06-14T10:00:40;13.60;;;12.10;;
6095;SDS011;25081;42.698;23.298;2023-06-14T10:02:52;16.40;;;12.30;;
6095;SDS011;25081;42.698;23.298;2023-06-14T10:05:03;19.03;;;11.00;;
6095;SDS011;25081;42.698;23.298;2023-06-14T10:07:15;14.73;;;12.93;;
6095;SDS011;25081;42.698;23.298;2023-06-14T10:09:26;15.37;;;11.33;;
6095;SDS011;25081;42.698;23.298;2023-06-14T10:11:37;13.80;;;10.20;;
6095;SDS011;25081;42.698;23.298;2023-06-14T10:13:48;12.53;;;10.53;;
6095;SDS011;25081;42.698;23.298;2023-06-14T10:16:00;12.40;;;11.10;;
6095;SDS011;25081;42.698;23.298;2023-06-14T10:18:14;13.60;;;10.90;;
6095;SDS011;25081;42.698;23.298;2023-06-14T10:20:27;10.73;;;9.63;;
6095;SDS011;25081;42.698;23.298;2023-06-14T10:22:40;12.80;;;11.43;;
6095;SDS011;25081;42.698;23.298;2023-06-14T10:24:50;18.53;;;10.90;;
6095;SDS011;25081;42.698;23.298;2023-06-14T10:27:00;10.73;;;9.60;;
6095;SDS011;25081;42.698;23.298;2023-06-14T10:29:13;14.23;;;11.60;;
6095;SDS011;25081;42.698;23.298;2023-06-14T10:31:23;11.40;;;10.20;;
6095;SDS011;25081;42.698;23.298;2023-06-14T10:33:34;12.13;;;10.37;;
6095;SDS011;25081;42.698;23.298;2023-06-14T10:35:45;12.73;;;10.70;;
6095;SDS011;25081;42.698;23.298;2023-06-14T10:37:55;12.63;;;11.33;;
6095;SDS011;25081;42.698;23.298;2023-06-14T10:40:08;15.73;;;11.77;;
6095;SDS011;25081;42.698;23.298;2023-06-14T10:42:20;12.73;;;10.97;;
6095;SDS011;25081;42.698;23.298;2023-06-14T10:44:41;11.90;;;10.40;;
6095;SDS011;25081;42.698;23.298;2023-06-14T10:46:54;12.37;;;11.07;;
6095;SDS011;25081;42.698;23.298;2023-06-14T10:49:05;12.60;;;9.80;;
6095;SDS011;25081;42.698;23.298;2023-06-14T10:51:19;13.47;;;11.63;;
6095;SDS011;25081;42.698;23.298;2023-06-14T10:53:31;13.50;;;11.97;;
6095;SDS011;25081;42.698;23.298;2023-06-14T10:55:46;13.17;;;10.20;;
6095;SDS011;25081;42.698;23.298;2023-06-14T10:57:57;10.50;;;9.47;;
6095;SDS011;25081;42.698;23.298;2023-06-14T11:00:09;10.07;;;9.00;;
6095;SDS011;25081;42.698;23.298;2023-06-14T11:02:33;12.13;;;9.87;;
6095;SDS011;25081;42.698;23.298;2023-06-14T11:07:45;13.50;;;11.50;;
6095;SDS011;25081;42.698;23.298;2023-06-14T11:10:03;10.77;;;9.53;;
6095;SDS011;25081;42.698;23.298;2023-06-14T11:12:20;14.73;;;12.17;;
6095;SDS011;25081;42.698;23.298;2023-06-14T11:14:31;12.07;;;10.77;;
6095;SDS011;25081;42.698;23.298;2023-06-14T11:16:42;13.23;;;11.23;;
6095;SDS011;25081;42.698;23.298;2023-06-14T11:18:52;13.90;;;11.50;;
6095;SDS011;25081;42.698;23.298;2023-06-14T11:21:03;12.30;;;10.80;;
6095;SDS011;25081;42.698;23.298;2023-06-14T11:23:13;14.20;;;10.70;;
6095;SDS011;25081;42.698;23.298;2023-06-14T11:25:24;12.07;;;10.77;;
6095;SDS011;25081;42.698;23.298;2023-06-14T11:27:35;10.23;;;8.10;;
6095;SDS011;25081;42.698;23.298;2023-06-14T11:29:49;9.83;;;8.83;;
6095;SDS011;25081;42.698;23.298;2023-06-14T11:32:00;10.47;;;9.00;;
6095;SDS011;25081;42.698;23.298;2023-06-14T11:34:11;11.37;;;9.43;;
6095;SDS011;25081;42.698;23.298;2023-06-14T11:36:21;12.53;;;9.30;;
6095;SDS011;25081;42.698;23.298;2023-06-14T11:38:35;13.97;;;10.50;;
6095;SDS011;25081;42.698;23.298;2023-06-14T11:40:46;10.73;;;9.63;;
6095;SDS011;25081;42.698;23.298;2023-06-14T11:43:00;11.10;;;9.90;;
6095;SDS011;25081;42.698;23.298;2023-06-14T11:45:11;11.33;;;10.03;;
6095;SDS011;25081;42.698;23.298;2023-06-14T11:47:22;11.93;;;9.17;;
6095;SDS011;25081;42.698;23.298;2023-06-14T11:49:35;11.73;;;9.67;;
6095;SDS011;25081;42.698;23.298;2023-06-14T11:51:46;12.27;;;9.70;;
6095;SDS011;25081;42.698;23.298;2023-06-14T11:53:57;10.50;;;8.77;;
6095;SDS011;25081;42.698;23.298;2023-06-14T11:56:07;10.60;;;9.50;;
6095;SDS011;25081;42.698;23.298;2023-06-14T11:58:19;10.37;;;8.63;;
6095;SDS011;25081;42.698;23.298;2023-06-14T12:00:29;13.30;;;8.70;;
6095;SDS011;25081;42.698;23.298;2023-06-14T12:02:40;9.00;;;8.10;;
6095;SDS011;25081;42.698;23.298;2023-06-14T12:04:51;11.27;;;8.93;;
6095;SDS011;25081;42.698;23.298;2023-06-14T12:07:09;11.30;;;8.90;;
6095;SDS011;25081;42.698;23.298;2023-06-14T12:09:21;10.60;;;8.87;;
6095;SDS011;25081;42.698;23.298;2023-06-14T12:11:33;9.83;;;8.30;;
6095;SDS011;25081;42.698;23.298;2023-06-14T12:13:43;11.40;;;9.23;;
6095;SDS011;25081;42.698;23.298;2023-06-14T12:15:57;9.80;;;8.33;;
6095;SDS011;25081;42.698;23.298;2023-06-14T12:18:07;11.00;;;8.00;;
6095;SDS011;25081;42.698;23.298;2023-06-14T12:20:18;9.63;;;8.57;;
6095;SDS011;25081;42.698;23.298;2023-06-14T12:22:29;10.93;;;9.20;;
6095;SDS011;25081;42.698;23.298;2023-06-14T12:24:39;8.83;;;7.93;;
6095;SDS011;25081;42.698;23.298;2023-06-14T12:26:52;10.20;;;8.77;;
6095;SDS011;25081;42.698;23.298;2023-06-14T12:29:04;11.93;;;8.90;;
6095;SDS011;25081;42.698;23.298;2023-06-14T12:31:15;9.90;;;7.80;;
6095;SDS011;25081;42.698;23.298;2023-06-14T12:33:26;10.90;;;8.97;;
6095;SDS011;25081;42.698;23.298;2023-06-14T12:35:36;8.20;;;7.40;;
6095;SDS011;25081;42.698;23.298;2023-06-14T12:37:47;10.07;;;7.57;;
6095;SDS011;25081;42.698;23.298;2023-06-14T12:39:58;12.37;;;7.77;;
6095;SDS011;25081;42.698;23.298;2023-06-14T12:42:08;7.80;;;6.90;;
6095;SDS011;25081;42.698;23.298;2023-06-14T12:44:28;9.20;;;8.20;;
6095;SDS011;25081;42.698;23.298;2023-06-14T12:46:39;9.13;;;8.23;;
6095;SDS011;25081;42.698;23.298;2023-06-14T12:48:49;9.37;;;7.53;;
6095;SDS011;25081;42.698;23.298;2023-06-14T12:51:00;10.57;;;8.10;;
6095;SDS011;25081;42.698;23.298;2023-06-14T12:53:11;9.60;;;6.63;;
6095;SDS011;25081;42.698;23.298;2023-06-14T12:55:22;9.00;;;7.70;;
6095;SDS011;25081;42.698;23.298;2023-06-14T12:57:32;9.57;;;7.30;;
6095;SDS011;25081;42.698;23.298;2023-06-14T12:59:44;8.90;;;7.20;;
6095;SDS011;25081;42.698;23.298;2023-06-14T13:01:54;10.90;;;7.90;;